Rosedale, IN (47874)

00:57 EST le 06 Mars 2015 (GMT -0500)
South Vermillion High School | Change Station
CLOSE
Current Station
Stations météorologiques personnelles
Location: Clinton, IN
Altitude: 518 ft
Stations météo à proximité

Alt. 518 ft 39.69 °N, 87.41 °W | Updated 10 minutes ago

Partiellement nuageux
Partiellement nuageux
2.5 ° F
Paraît 2 ° F
N
0.0
Vent Variable Vent de SSE
Gusts 0.0 mph

Aujourd'hui
Haut(e) -- | Bas -- ° F
--% Risque de précip.
Hier
Haut(e) -- | Bas -- ° F
Precip. -- pouce
7:14 AM 6:46 PM
Pleine lune, 100% visible
Pression 30.63 pouce
Visibilité 10.0 Miles terrestres
Nuages Ciel dégagé
Refroidissement éolien 2 ° F
Point de rosée -1 ° F
Humidité 86%
Précipitations pouce
Profondeur de la couche neigeuse Non disponible.
UV 0 sur 12
Pollen 1.10 sur 12
Qualité de l'air Non disponible.
Flu Activity Non disponible.
METAR KHUF 060453Z 00000KT 10SM CLR M17/M19 A3059 RMK AO2 SLP371 T11721194 410671172

More Conditions Fewer Conditions

Pression 30.63 pouce
Visibilité 10.0 Miles terrestres
Nuages Ciel dégagé
Refroidissement éolien 2 ° F
Point de rosée -1 ° F
Humidité 86%
Précipitations pouce
Profondeur de la couche neigeuse Non disponible.
UV 0 sur 12
Pollen 1.10 sur 12
Qualité de l'air Non disponible.
Flu Activity Non disponible.
METAR KHUF 060453Z 00000KT 10SM CLR M17/M19 A3059 RMK AO2 SLP371 T11721194 410671172

More Conditions Fewer Conditions

10-Day Weather Forecast

Almanac

Astronomie

Mar. 06, 2015 Lever Coucher
Temps réel
Crépuscule civil
Crépuscule nautique
Crépuscule astronomique
Lune
Durée de lumière visible
Longueur du jour
Tomorrow will be .
, % of the Moon is Illuminated

Extrêmes aujourd'hui

State Highs State Lows

Community

WunderPhotos

Upload Photos

1,803,207 Photos téléchargées !

WunderBlogs® & News

Nearby

Qualité de l'air

  Qualité de l'air Indice de la qualité de l'air Polluant
Not available.

Épaisseur de neige

Station Depth Altitude

Activité sismique

Ville Distance Mag. Time & Date
Minimum magnitude displayed is 2.5.

Températures des eaux côtières

Lieu Température

Stations météo à proximité